Time;durP1;ratioP1;P1;durP2;ratioP2;P2;SDS_P1;SDS_P2;PMS_P1;PMS_P2;Temp;Humidity;BMP_temperature;BMP_pressure;BME280_temperature;BME280_humidity;BME280_pressure;Samples;Min_cycle;Max_cycle;Signal;HPM_P1;HPM_P2
2022/10/08 00:01:50;;;;;;;21.60;10.80;;;;;;;14.22;87.56;100582.56;103263;1282;22481;-57
2022/10/08 00:04:22;;;;;;;23.10;11.30;;;;;;;14.20;87.54;100580.25;103226;1285;24822;-58
2022/10/08 00:06:54;;;;;;;25.70;11.60;;;;;;;14.20;87.55;100573.71;103175;1283;24323;-58
2022/10/08 00:09:26;;;;;;;22.50;11.00;;;;;;;14.19;87.55;100564.63;103244;1289;22489;-58
2022/10/08 00:11:57;;;;;;;22.50;11.30;;;;;;;14.18;87.65;100560.27;103177;1283;25558;-58
2022/10/08 00:14:28;;;;;;;23.90;10.30;;;;;;;14.17;87.67;100555.67;103213;1306;25441;-58
2022/10/08 00:17:00;;;;;;;23.60;11.50;;;;;;;14.16;87.67;100554.58;103294;1291;22471;-58
2022/10/08 00:19:32;;;;;;;24.90;11.00;;;;;;;14.16;87.69;100549.73;103286;1285;22927;-56
2022/10/08 00:22:04;;;;;;;26.70;11.40;;;;;;;14.14;87.81;100547.58;103284;1278;25341;-57
2022/10/08 00:24:37;;;;;;;23.50;11.40;;;;;;;14.13;87.76;100546.60;103310;1298;22709;-57
2022/10/08 00:27:11;;;;;;;22.50;10.50;;;;;;;14.12;87.76;100543.06;103103;1276;22539;-57
2022/10/08 00:29:43;;;;;;;22.50;9.90;;;;;;;14.11;87.77;100544.28;103193;1285;22459;-58
2022/10/08 00:32:18;;;;;;;25.00;11.90;;;;;;;14.10;87.57;100541.41;103286;1281;22469;-57
2022/10/08 00:34:50;;;;;;;23.50;9.80;;;;;;;14.10;87.77;100540.08;103189;1278;25356;-57
2022/10/08 00:37:21;;;;;;;22.10;11.50;;;;;;;14.09;87.73;100540.54;103101;1275;25467;-58
2022/10/08 00:39:52;;;;;;;23.50;10.70;;;;;;;14.07;87.80;100535.72;103120;1283;22482;-56
2022/10/08 00:42:24;;;;;;;17.20;8.80;;;;;;;14.07;87.65;100530.72;103137;1282;22485;-57
2022/10/08 00:44:58;;;;;;;21.50;10.20;;;;;;;14.05;87.59;100533.04;103145;1284;25335;-56
2022/10/08 00:47:39;;;;;;;18.40;8.20;;;;;;;14.05;87.62;100529.38;103297;1287;22472;-57
2022/10/08 00:50:14;;;;;;;20.60;9.40;;;;;;;14.04;87.61;100525.58;103205;1282;25303;-57
2022/10/08 00:52:48;;;;;;;23.40;10.00;;;;;;;14.03;87.62;100524.45;103199;1282;25659;-56
2022/10/08 00:55:22;;;;;;;18.30;9.70;;;;;;;14.02;87.60;100517.55;103086;1300;22599;-57
2022/10/08 00:57:54;;;;;;;21.60;10.20;;;;;;;14.01;87.86;100512.08;103172;1303;24282;-58
2022/10/08 01:00:26;;;;;;;21.50;10.50;;;;;;;13.99;87.78;100510.17;103046;1295;22466;-57
2022/10/08 01:02:58;;;;;;;23.90;10.00;;;;;;;13.98;87.78;100504.34;103167;1304;25279;-57
2022/10/08 01:05:38;;;;;;;18.60;9.90;;;;;;;13.96;87.83;100499.73;103012;1295;22944;-57
2022/10/08 01:08:19;;;;;;;21.30;10.00;;;;;;;13.94;87.94;100501.60;103145;1292;25805;-57
2022/10/08 01:10:57;;;;;;;20.80;9.20;;;;;;;13.93;87.93;100498.57;103203;1306;22509;-58
2022/10/08 01:13:40;;;;;;;18.90;8.90;;;;;;;13.91;88.15;100496.11;103354;1278;22536;-58
2022/10/08 01:16:24;;;;;;;21.90;10.80;;;;;;;13.90;88.12;100499.47;103197;1292;22666;-55
2022/10/08 01:19:02;;;;;;;22.60;11.20;;;;;;;13.89;88.17;100490.47;103226;1307;24199;-57
2022/10/08 01:21:43;;;;;;;20.70;9.80;;;;;;;13.88;88.23;100488.44;103099;1289;24359;-57
2022/10/08 01:27:33;;;;;;;21.60;10.60;;;;;;;13.86;88.21;100485.81;103083;1281;22615;-57
2022/10/08 01:30:10;;;;;;;24.70;10.60;;;;;;;13.86;88.31;100480.70;103174;1278;22489;-57
2022/10/08 01:32:47;;;;;;;21.70;9.30;;;;;;;13.86;88.30;100483.70;103081;1288;22498;-56
2022/10/08 01:35:24;;;;;;;18.20;7.90;;;;;;;13.85;88.52;100482.22;103114;1283;25377;-57
2022/10/08 01:37:59;;;;;;;15.80;7.00;;;;;;;13.84;88.47;100481.40;103476;1288;22693;-58
2022/10/08 01:40:35;;;;;;;14.90;6.80;;;;;;;13.82;88.68;100481.44;103278;1272;24371;-57
2022/10/08 01:43:10;;;;;;;15.30;6.70;;;;;;;13.80;88.60;100478.45;103170;1285;25435;-58
2022/10/08 01:45:46;;;;;;;19.50;7.30;;;;;;;13.81;88.72;100473.88;103183;1283;22470;-57
2022/10/08 01:48:23;;;;;;;15.80;6.60;;;;;;;13.82;88.72;100471.54;103171;1294;22476;-57
2022/10/08 01:50:59;;;;;;;17.00;6.80;;;;;;;13.82;88.71;100466.29;103139;1307;22589;-58
2022/10/08 01:53:36;;;;;;;14.10;6.40;;;;;;;13.81;88.62;100465.05;103228;1284;23091;-57
2022/10/08 01:56:13;;;;;;;19.10;7.40;;;;;;;13.81;88.63;100464.17;103170;1284;25232;-58
2022/10/08 01:58:52;;;;;;;15.80;6.70;;;;;;;13.81;88.70;100462.39;103144;1291;25264;-58
2022/10/08 02:01:29;;;;;;;14.60;6.80;;;;;;;13.81;88.67;100459.12;103136;1278;22703;-56
2022/10/08 02:06:55;;;;;;;14.70;6.60;;;;;;;13.82;88.73;100451.23;103082;1284;22545;-57
2022/10/08 02:09:30;;;;;;;15.70;6.70;;;;;;;13.81;88.77;100450.39;103149;1283;22458;-58
2022/10/08 02:12:01;;;;;;;15.60;6.20;;;;;;;13.80;88.83;100447.09;103178;1284;25287;-57
2022/10/08 02:14:34;;;;;;;12.70;5.50;;;;;;;13.79;88.77;100441.66;103208;1289;26608;-57
2022/10/08 02:17:19;;;;;;;15.90;7.20;;;;;;;13.79;88.73;100439.12;103210;1304;22486;-57
2022/10/08 02:19:56;;;;;;;12.10;5.80;;;;;;;13.79;88.72;100438.71;103184;1287;22480;-57
2022/10/08 02:22:32;;;;;;;13.80;6.70;;;;;;;13.78;88.79;100437.16;103167;1282;22492;-56
2022/10/08 02:25:11;;;;;;;14.00;6.60;;;;;;;13.77;88.74;100436.91;103160;1305;22486;-55
2022/10/08 02:27:53;;;;;;;17.20;7.40;;;;;;;13.76;88.69;100433.73;103346;1286;22788;-57
2022/10/08 02:30:26;;;;;;;17.60;7.50;;;;;;;13.74;88.57;100431.61;103167;1291;22634;-57
2022/10/08 02:33:03;;;;;;;16.90;7.50;;;;;;;13.72;88.54;100435.22;103351;1286;22505;-57
2022/10/08 02:35:42;;;;;;;15.30;7.20;;;;;;;13.70;88.47;100432.23;103257;1307;22474;-56
2022/10/08 02:38:18;;;;;;;20.50;8.50;;;;;;;13.69;88.54;100437.28;103182;1291;25559;-57
2022/10/08 02:40:53;;;;;;;19.50;8.70;;;;;;;13.66;88.63;100442.82;103375;1304;22576;-58
2022/10/08 02:43:29;;;;;;;16.30;7.30;;;;;;;13.65;88.67;100443.11;103297;1286;24229;-57
2022/10/08 02:46:04;;;;;;;14.40;6.40;;;;;;;13.63;88.62;100443.91;103239;1295;22487;-59
2022/10/08 02:48:37;;;;;;;14.60;6.40;;;;;;;13.60;88.77;100445.51;103263;1289;24211;-56
2022/10/08 02:51:14;;;;;;;13.30;6.30;;;;;;;13.58;88.57;100446.91;103189;1294;25444;-56
2022/10/08 02:53:48;;;;;;;14.00;5.50;;;;;;;13.56;88.69;100442.57;103221;1308;23441;-58
2022/10/08 02:56:26;;;;;;;17.00;7.40;;;;;;;13.53;88.88;100446.51;103175;1284;25349;-56
2022/10/08 02:58:58;;;;;;;15.20;6.90;;;;;;;13.51;89.01;100447.04;103188;1307;24339;-57
2022/10/08 03:01:40;;;;;;;13.70;6.40;;;;;;;13.50;89.17;100444.23;103303;1286;25348;-56
2022/10/08 03:04:17;;;;;;;14.20;6.40;;;;;;;13.49;89.28;100447.13;103200;1277;22468;-57
2022/10/08 03:06:50;;;;;;;12.20;6.10;;;;;;;13.49;89.31;100450.75;103186;1282;24318;-56
2022/10/08 03:09:24;;;;;;;15.40;6.20;;;;;;;13.49;89.52;100449.58;103259;1307;25289;-58
2022/10/08 03:11:56;;;;;;;14.60;6.20;;;;;;;13.51;89.49;100453.87;103065;1307;22539;-57
2022/10/08 03:14:29;;;;;;;15.00;6.60;;;;;;;13.50;89.41;100452.30;103085;1284;22469;-58
2022/10/08 03:17:00;;;;;;;14.80;7.10;;;;;;;13.50;89.52;100453.02;103251;1275;22433;-58
2022/10/08 03:19:33;;;;;;;16.40;6.80;;;;;;;13.49;89.65;100451.61;103297;1282;22471;-55
2022/10/08 03:22:06;;;;;;;15.70;7.70;;;;;;;13.50;89.69;100450.40;103161;1292;22553;-55
2022/10/08 03:24:39;;;;;;;13.00;10.40;;;;;;;13.50;89.78;100447.96;103234;1279;25508;-58
2022/10/08 03:27:10;;;;;;;15.30;7.10;;;;;;;13.51;89.80;100443.59;103076;1281;22726;-56
2022/10/08 03:29:41;;;;;;;14.50;6.50;;;;;;;13.52;89.94;100446.81;103278;1298;24332;-57
2022/10/08 03:32:13;;;;;;;16.60;7.20;;;;;;;13.53;89.94;100448.85;103105;1291;22476;-57
2022/10/08 03:34:45;;;;;;;16.90;7.70;;;;;;;13.54;89.95;100450.70;103241;1285;25381;-57
2022/10/08 03:37:16;;;;;;;18.90;7.60;;;;;;;13.55;90.08;100449.89;103107;1297;22497;-56
2022/10/08 03:39:48;;;;;;;15.90;6.90;;;;;;;13.56;89.98;100449.77;103372;1286;22491;-55
2022/10/08 03:42:19;;;;;;;16.10;6.90;;;;;;;13.58;90.03;100443.19;103104;1303;22481;-57
2022/10/08 03:44:52;;;;;;;19.40;7.30;;;;;;;13.58;90.01;100440.59;103278;1282;25414;-56
2022/10/08 03:47:23;;;;;;;15.60;7.60;;;;;;;13.59;89.92;100434.95;103172;1278;22489;-57
2022/10/08 03:49:54;;;;;;;13.90;6.50;;;;;;;13.59;90.06;100433.77;103317;1303;23199;-56
2022/10/08 03:52:26;;;;;;;14.70;7.00;;;;;;;13.60;90.03;100434.85;103150;1278;22487;-57
2022/10/08 03:54:57;;;;;;;16.00;7.60;;;;;;;13.61;90.11;100436.23;103233;1283;22551;-56
2022/10/08 03:57:28;;;;;;;20.80;7.40;;;;;;;13.62;89.97;100425.84;103260;1278;25296;-59
2022/10/08 04:00:00;;;;;;;16.50;7.40;;;;;;;13.64;90.09;100430.15;103177;1286;22597;-59
2022/10/08 04:02:32;;;;;;;15.50;6.90;;;;;;;13.65;90.13;100423.92;103486;1279;22598;-59
2022/10/08 04:05:03;;;;;;;16.50;7.60;;;;;;;13.64;90.12;100421.52;103216;1310;24202;-57
2022/10/08 04:07:34;;;;;;;15.70;7.60;;;;;;;13.65;90.19;100418.38;103451;1292;22492;-57
2022/10/08 04:10:07;;;;;;;15.10;7.70;;;;;;;13.66;90.21;100420.32;103240;1283;25524;-57
2022/10/08 04:12:38;;;;;;;16.70;7.80;;;;;;;13.66;90.29;100419.70;103362;1303;24432;-57
2022/10/08 04:15:11;;;;;;;16.00;7.30;;;;;;;13.67;90.36;100418.30;103232;1307;24517;-57
2022/10/08 04:17:43;;;;;;;13.30;6.90;;;;;;;13.69;90.39;100423.66;103414;1310;25694;-57
2022/10/08 04:20:15;;;;;;;16.10;7.30;;;;;;;13.70;90.39;100426.78;103260;1284;25319;-57
2022/10/08 04:22:47;;;;;;;18.20;7.90;;;;;;;13.72;90.50;100425.78;103385;1310;22513;-57
2022/10/08 04:25:18;;;;;;;14.20;7.40;;;;;;;13.72;90.34;100429.10;103150;1283;25094;-56
2022/10/08 04:27:50;;;;;;;18.40;7.30;;;;;;;13.72;90.39;100429.04;103410;1304;22478;-57
2022/10/08 04:30:22;;;;;;;17.50;8.50;;;;;;;13.73;90.52;100430.18;103169;1294;25223;-57
2022/10/08 04:32:55;;;;;;;16.90;8.20;;;;;;;13.73;90.47;100429.23;103325;1303;22518;-56
2022/10/08 04:35:26;;;;;;;16.90;7.70;;;;;;;13.73;90.45;100426.15;103142;1283;22486;-57
2022/10/08 04:37:58;;;;;;;17.20;7.40;;;;;;;13.74;90.49;100429.06;103405;1291;25305;-57
2022/10/08 04:40:29;;;;;;;14.60;7.50;;;;;;;13.75;90.35;100425.66;103293;1286;22462;-56
2022/10/08 04:43:01;;;;;;;14.20;7.20;;;;;;;13.75;90.42;100424.38;103331;1283;22487;-57
2022/10/08 04:45:32;;;;;;;17.20;8.80;;;;;;;13.76;90.47;100425.40;103207;1278;25517;-56
2022/10/08 04:48:03;;;;;;;14.50;7.60;;;;;;;13.76;90.53;100425.48;103460;1300;24317;-56
2022/10/08 04:50:35;;;;;;;17.00;7.10;;;;;;;13.77;90.48;100427.21;103175;1284;22465;-58
2022/10/08 04:53:08;;;;;;;18.50;8.10;;;;;;;13.78;90.54;100429.14;103053;1304;22462;-58
2022/10/08 04:55:39;;;;;;;16.50;8.30;;;;;;;13.78;90.51;100431.60;103203;1291;25244;-56
2022/10/08 04:58:11;;;;;;;13.80;7.70;;;;;;;13.78;90.64;100429.77;103084;1295;26360;-56
2022/10/08 05:00:42;;;;;;;17.00;7.90;;;;;;;13.79;90.61;100426.05;103305;1282;22551;-58
2022/10/08 05:03:14;;;;;;;19.20;8.70;;;;;;;13.78;90.61;100426.15;103162;1281;23924;-57
2022/10/08 05:05:46;;;;;;;16.90;8.20;;;;;;;13.79;90.72;100426.83;103240;1283;22490;-57
2022/10/08 05:08:18;;;;;;;23.00;8.90;;;;;;;13.80;90.76;100427.64;103194;1283;24499;-56
2022/10/08 05:10:51;;;;;;;17.30;8.60;;;;;;;13.81;90.61;100427.60;103358;1295;22466;-56
2022/10/08 05:13:22;;;;;;;17.00;8.30;;;;;;;13.82;90.69;100428.27;103281;1279;25026;-56
2022/10/08 05:15:54;;;;;;;17.20;7.70;;;;;;;13.83;90.83;100432.41;103148;1279;22461;-56
2022/10/08 05:18:26;;;;;;;15.90;9.20;;;;;;;13.83;90.67;100430.63;103193;1290;22549;-58
2022/10/08 05:20:57;;;;;;;20.60;8.50;;;;;;;13.84;90.77;100433.13;103139;1289;22606;-57
2022/10/08 05:23:29;;;;;;;17.40;9.20;;;;;;;13.84;90.92;100438.34;103302;1275;22465;-57
2022/10/08 05:26:01;;;;;;;19.60;9.20;;;;;;;13.85;90.87;100431.25;103130;1304;22732;-58
2022/10/08 05:28:33;;;;;;;17.80;8.10;;;;;;;13.85;90.94;100429.67;103329;1291;22588;-58
2022/10/08 05:31:05;;;;;;;16.80;8.40;;;;;;;13.86;90.96;100428.25;103089;1278;24311;-57
2022/10/08 05:33:36;;;;;;;16.80;9.00;;;;;;;13.87;90.94;100428.42;103434;1281;22741;-58
2022/10/08 05:36:12;;;;;;;17.20;8.80;;;;;;;13.88;91.05;100429.33;103144;1275;25550;-59
2022/10/08 05:38:43;;;;;;;19.60;8.30;;;;;;;13.89;91.10;100433.99;103239;1283;22504;-57
2022/10/08 05:41:19;;;;;;;24.10;10.30;;;;;;;13.90;91.10;100430.34;103455;1289;25331;-58
2022/10/08 05:43:50;;;;;;;19.80;9.00;;;;;;;13.91;91.20;100433.70;103188;1304;22495;-57
2022/10/08 05:46:23;;;;;;;18.60;9.40;;;;;;;13.91;91.16;100437.07;103131;1283;25096;-58
2022/10/08 05:48:57;;;;;;;18.00;8.60;;;;;;;13.93;91.17;100436.98;103069;1282;25434;-59
2022/10/08 05:51:29;;;;;;;17.80;9.20;;;;;;;13.94;91.25;100438.18;103666;1283;24233;-57
2022/10/08 05:54:00;;;;;;;19.60;9.10;;;;;;;13.96;91.24;100439.61;102992;1282;25556;-58
2022/10/08 05:56:32;;;;;;;20.50;8.40;;;;;;;13.97;91.22;100444.46;103247;1283;24047;-58
2022/10/08 05:59:03;;;;;;;19.60;9.70;;;;;;;13.99;91.22;100446.77;103328;1282;22541;-58
2022/10/08 06:01:35;;;;;;;19.40;9.60;;;;;;;14.01;91.27;100447.92;102938;1285;25341;-59
2022/10/08 06:04:06;;;;;;;19.10;9.70;;;;;;;14.03;91.42;100447.80;103190;1276;24261;-57
2022/10/08 06:06:39;;;;;;;17.40;9.60;;;;;;;14.06;91.46;100447.30;103631;1283;22610;-59
2022/10/08 06:09:13;;;;;;;18.50;8.80;;;;;;;14.08;91.49;100451.88;103108;1283;22594;-59
2022/10/08 06:11:45;;;;;;;18.80;9.70;;;;;;;14.10;91.47;100441.88;102969;1283;22477;-58
2022/10/08 06:14:20;;;;;;;22.10;10.20;;;;;;;14.12;91.39;100442.14;102897;1282;22595;-58
2022/10/08 06:16:52;;;;;;;22.10;10.40;;;;;;;14.14;91.47;100441.70;102581;1275;24524;-59
2022/10/08 06:19:24;;;;;;;18.40;9.30;;;;;;;14.16;91.48;100440.03;103302;1279;24362;-58
2022/10/08 06:21:55;;;;;;;20.90;10.80;;;;;;;14.19;91.45;100440.01;103124;1275;22704;-58
2022/10/08 06:24:28;;;;;;;19.40;10.20;;;;;;;14.22;91.37;100441.67;103096;1283;22460;-59
2022/10/08 06:27:00;;;;;;;25.80;10.50;;;;;;;14.25;91.43;100443.41;103045;1282;22601;-58
2022/10/08 06:29:32;;;;;;;29.40;12.40;;;;;;;14.27;91.44;100443.64;102972;1282;22533;-58
2022/10/08 06:32:03;;;;;;;22.60;12.70;;;;;;;14.30;91.49;100445.83;103004;1281;22813;-57
2022/10/08 06:34:34;;;;;;;22.40;11.90;;;;;;;14.33;91.49;100448.66;102758;1298;25302;-58
2022/10/08 06:37:06;;;;;;;24.50;11.80;;;;;;;14.37;91.42;100449.41;103106;1297;25549;-58
2022/10/08 06:39:37;;;;;;;19.90;11.00;;;;;;;14.41;91.48;100448.00;102755;1283;23629;-57
2022/10/08 06:42:09;;;;;;;22.50;10.30;;;;;;;14.45;91.48;100445.73;103057;1299;24356;-58
2022/10/08 06:44:40;;;;;;;20.70;11.30;;;;;;;14.49;91.36;100445.66;102933;1281;22567;-58
2022/10/08 06:47:11;;;;;;;23.10;11.70;;;;;;;14.54;91.44;100448.30;103128;1281;22669;-58
2022/10/08 06:49:42;;;;;;;19.50;10.10;;;;;;;14.60;91.42;100450.58;103027;1306;22460;-57
2022/10/08 06:52:14;;;;;;;22.70;12.40;;;;;;;14.67;91.43;100448.16;103001;1282;22593;-58
2022/10/08 06:54:45;;;;;;;18.50;10.40;;;;;;;14.73;91.36;100448.81;103029;1282;22541;-57
2022/10/08 06:57:17;;;;;;;24.40;11.60;;;;;;;14.80;91.16;100443.84;102973;1282;24261;-58
2022/10/08 06:59:48;;;;;;;20.60;11.70;;;;;;;14.87;91.19;100446.79;103165;1288;24338;-57
2022/10/08 07:02:19;;;;;;;21.40;11.50;;;;;;;14.94;91.22;100445.14;103054;1281;22520;-57
2022/10/08 07:04:51;;;;;;;32.50;12.40;;;;;;;15.05;91.01;100445.54;102969;1281;22478;-58
2022/10/08 07:07:22;;;;;;;21.30;11.30;;;;;;;15.14;91.07;100443.89;102976;1298;25361;-57
2022/10/08 07:09:53;;;;;;;20.80;11.40;;;;;;;15.23;91.02;100441.98;102999;1282;22610;-56
2022/10/08 07:12:25;;;;;;;23.00;10.90;;;;;;;15.32;90.65;100442.57;102916;1282;25286;-57
2022/10/08 07:14:56;;;;;;;23.60;10.90;;;;;;;15.39;90.45;100442.59;103003;1306;26522;-59
2022/10/08 07:17:28;;;;;;;23.90;11.00;;;;;;;15.48;90.26;100439.31;103012;1275;26770;-59
2022/10/08 07:19:59;;;;;;;23.70;11.00;;;;;;;15.55;90.31;100440.50;103059;1306;22536;-58
2022/10/08 07:22:31;;;;;;;25.30;11.70;;;;;;;15.59;90.03;100436.98;103129;1288;22732;-56
2022/10/08 07:25:02;;;;;;;23.30;11.50;;;;;;;15.65;90.02;100440.46;102977;1282;25438;-59
2022/10/08 07:27:34;;;;;;;35.30;14.20;;;;;;;15.69;89.89;100439.61;103251;1300;22509;-56
2022/10/08 07:30:06;;;;;;;26.90;14.80;;;;;;;15.74;89.80;100438.34;102875;1298;26436;-56
2022/10/08 07:32:38;;;;;;;24.30;14.30;;;;;;;15.80;89.48;100436.39;103015;1275;22484;-58
2022/10/08 07:35:11;;;;;;;24.10;12.10;;;;;;;15.85;89.32;100429.86;102948;1282;25458;-57
2022/10/08 07:37:45;;;;;;;28.50;13.40;;;;;;;15.88;89.12;100437.12;103000;1282;22464;-55
2022/10/08 07:40:16;;;;;;;24.00;12.50;;;;;;;15.94;89.21;100438.66;103076;1282;22528;-56
2022/10/08 07:42:47;;;;;;;24.50;10.30;;;;;;;16.00;88.91;100436.20;103001;1298;24444;-57
2022/10/08 07:45:19;;;;;;;23.20;10.90;;;;;;;16.06;88.60;100438.31;102932;1274;22501;-55
2022/10/08 07:47:50;;;;;;;32.00;12.30;;;;;;;16.11;88.63;100444.60;102950;1282;24216;-56
2022/10/08 07:50:23;;;;;;;25.40;11.70;;;;;;;16.18;88.57;100442.54;103137;1284;25297;-56
2022/10/08 07:52:54;;;;;;;20.10;9.60;;;;;;;16.24;88.44;100446.39;102900;1282;22451;-57
2022/10/08 07:55:25;;;;;;;23.50;10.90;;;;;;;16.31;88.29;100447.25;102901;1290;22476;-56
2022/10/08 07:57:57;;;;;;;21.40;9.60;;;;;;;16.36;88.22;100445.20;102967;1275;25416;-57
2022/10/08 08:00:28;;;;;;;19.50;10.10;;;;;;;16.41;88.15;100444.31;103017;1282;24320;-58
2022/10/08 08:03:00;;;;;;;20.60;10.10;;;;;;;16.46;87.85;100442.27;103147;1282;22539;-57
2022/10/08 08:05:35;;;;;;;23.10;10.80;;;;;;;16.50;87.35;100440.08;102914;1275;22463;-56
2022/10/08 08:08:06;;;;;;;21.50;9.50;;;;;;;16.52;87.37;100437.82;103007;1288;25316;-59
2022/10/08 08:10:37;;;;;;;19.60;9.00;;;;;;;16.54;87.33;100437.88;103000;1298;22476;-59
2022/10/08 08:13:09;;;;;;;24.90;10.00;;;;;;;16.58;87.19;100441.09;103146;1282;25130;-56
2022/10/08 08:15:41;;;;;;;18.90;8.70;;;;;;;16.61;87.01;100445.50;102955;1280;24882;-58
2022/10/08 08:18:14;;;;;;;20.00;8.60;;;;;;;16.64;86.96;100442.66;103167;1278;25340;-58
2022/10/08 08:20:45;;;;;;;20.60;9.50;;;;;;;16.69;86.70;100435.27;102929;1282;26077;-58
2022/10/08 08:23:17;;;;;;;21.80;9.60;;;;;;;16.72;86.55;100435.52;102942;1282;22466;-57
2022/10/08 08:25:48;;;;;;;21.90;10.40;;;;;;;16.75;86.29;100440.94;102884;1282;26544;-58
2022/10/08 08:28:19;;;;;;;18.50;9.30;;;;;;;16.80;86.22;100446.52;102894;1274;22615;-58
2022/10/08 08:30:51;;;;;;;26.60;10.90;;;;;;;16.83;86.04;100445.58;103026;1292;22469;-59
2022/10/08 08:33:24;;;;;;;20.10;9.80;;;;;;;16.87;86.05;100440.85;103037;1276;22583;-57
2022/10/08 08:35:56;;;;;;;27.70;10.30;;;;;;;16.91;86.13;100441.66;102972;1282;23132;-57
2022/10/08 08:38:28;;;;;;;21.40;10.50;;;;;;;16.95;85.83;100437.49;103096;1275;25287;-57
2022/10/08 08:41:11;;;;;;;23.90;11.10;;;;;;;17.01;85.90;100438.30;102864;1282;22480;-58
2022/10/08 08:43:43;;;;;;;40.90;13.00;;;;;;;17.08;85.82;100442.77;103109;1281;22467;-56
2022/10/08 08:46:21;;;;;;;58.00;20.30;;;;;;;17.14;85.71;100441.16;103153;1282;25430;-57
2022/10/08 08:48:56;;;;;;;48.50;17.20;;;;;;;17.22;85.67;100440.72;103011;1275;25261;-58
2022/10/08 08:51:28;;;;;;;25.00;10.40;;;;;;;17.29;85.29;100429.48;102974;1275;24332;-57
2022/10/08 08:54:00;;;;;;;23.30;9.50;;;;;;;17.36;84.70;100433.66;102865;1282;22476;-57
2022/10/08 08:56:33;;;;;;;22.30;8.90;;;;;;;17.41;84.40;100437.33;103000;1275;24382;-59
2022/10/08 08:59:17;;;;;;;24.00;10.00;;;;;;;17.50;84.16;100438.02;103207;1299;24293;-59
2022/10/08 09:01:52;;;;;;;27.00;10.80;;;;;;;17.61;83.90;100434.10;103031;1306;26622;-58
2022/10/08 09:04:33;;;;;;;24.40;9.20;;;;;;;17.70;83.52;100441.08;102974;1282;26091;-60
2022/10/08 09:07:13;;;;;;;19.10;8.50;;;;;;;17.78;83.07;100442.56;102899;1282;22533;-59
2022/10/08 09:09:50;;;;;;;21.20;8.50;;;;;;;17.86;82.74;100445.48;103176;1287;22466;-58
2022/10/08 09:12:27;;;;;;;21.70;10.20;;;;;;;17.94;82.72;100441.77;103062;1281;22502;-58
2022/10/08 09:15:01;;;;;;;17.50;7.50;;;;;;;18.01;82.69;100441.73;103062;1281;25309;-57
2022/10/08 09:17:35;;;;;;;16.90;7.10;;;;;;;18.11;82.38;100436.09;102911;1281;22481;-57
2022/10/08 09:20:08;;;;;;;17.30;6.90;;;;;;;18.20;81.36;100438.68;103099;1282;22469;-58
2022/10/08 09:22:41;;;;;;;17.90;7.30;;;;;;;18.25;81.00;100439.92;103067;1282;22519;-58
2022/10/08 09:25:18;;;;;;;19.70;7.50;;;;;;;18.30;81.15;100440.08;103132;1275;25189;-58
2022/10/08 09:27:51;;;;;;;15.90;5.50;;;;;;;18.37;80.89;100440.94;103223;1275;22603;-55
2022/10/08 09:30:37;;;;;;;17.70;5.80;;;;;;;18.43;80.05;100445.11;102949;1281;22517;-57
2022/10/08 09:33:21;;;;;;;23.70;6.60;;;;;;;18.48;79.93;100443.22;103100;1275;25473;-57
2022/10/08 09:35:53;;;;;;;21.50;6.80;;;;;;;18.56;80.02;100447.25;102778;1275;22462;-60
2022/10/08 09:38:27;;;;;;;19.30;6.90;;;;;;;18.64;79.95;100439.79;102911;1275;22480;-58
2022/10/08 09:41:08;;;;;;;16.70;6.90;;;;;;;18.69;79.68;100447.68;102997;1275;22471;-58
2022/10/08 09:43:40;;;;;;;17.80;6.20;;;;;;;18.74;79.25;100449.48;103188;1275;25435;-58
2022/10/08 09:46:30;;;;;;;21.00;6.80;;;;;;;18.77;78.95;100453.61;103031;1274;24195;-57
2022/10/08 09:49:19;;;;;;;;;;;;;;;18.76;78.45;100455.95;103309;1275;24040;-58
2022/10/08 09:51:52;;;;;;;19.60;6.70;;;;;;;18.75;78.41;100455.13;102872;1282;22502;-58
2022/10/08 09:54:27;;;;;;;17.60;6.10;;;;;;;18.76;78.38;100456.77;102905;1274;25327;-58
2022/10/08 09:57:01;;;;;;;18.50;6.60;;;;;;;18.76;77.79;100453.42;103195;1282;22479;-58
2022/10/08 09:59:36;;;;;;;18.80;7.30;;;;;;;18.76;77.81;100452.10;102938;1292;22463;-57
2022/10/08 10:02:27;;;;;;;19.50;7.20;;;;;;;18.77;77.68;100458.35;102898;1275;22468;-58
2022/10/08 10:05:00;;;;;;;21.00;8.50;;;;;;;18.79;77.57;100459.26;103168;1279;25299;-57
2022/10/08 10:07:44;;;;;;;18.70;7.30;;;;;;;18.78;77.32;100462.35;103039;1275;25273;-58
2022/10/08 10:10:24;;;;;;;21.60;6.90;;;;;;;18.75;76.72;100465.88;103162;1282;24309;-58
2022/10/08 10:12:59;;;;;;;22.00;8.10;;;;;;;18.70;76.85;100463.42;103018;1299;24410;-58
2022/10/08 10:15:37;;;;;;;19.50;7.20;;;;;;;18.65;76.49;100465.58;103109;1274;25262;-58
2022/10/08 10:18:15;;;;;;;21.50;7.10;;;;;;;18.60;76.14;100463.05;103080;1305;23027;-57
2022/10/08 10:20:49;;;;;;;18.70;6.50;;;;;;;18.58;75.79;100464.87;102860;1306;22537;-57
2022/10/08 10:23:26;;;;;;;17.40;8.00;;;;;;;18.56;75.48;100464.27;102841;1281;22508;-58
2022/10/08 10:26:02;;;;;;;15.70;6.30;;;;;;;18.55;75.30;100456.41;102839;1292;24278;-57
2022/10/08 10:28:41;;;;;;;18.10;6.50;;;;;;;18.59;75.45;100456.23;102903;1278;23356;-58
2022/10/08 10:31:19;;;;;;;18.10;6.80;;;;;;;18.64;75.12;100447.19;103494;1281;25340;-58
2022/10/08 10:33:56;;;;;;;18.70;7.70;;;;;;;18.68;75.19;100446.93;103085;1288;22610;-57
2022/10/08 10:36:31;;;;;;;19.00;7.70;;;;;;;18.72;74.97;100444.88;103289;1282;22529;-57
2022/10/08 10:39:13;;;;;;;22.50;7.50;;;;;;;18.76;74.83;100443.39;103199;1275;25272;-58
2022/10/08 10:41:48;;;;;;;19.80;8.50;;;;;;;18.79;74.81;100437.55;103222;1274;24427;-58
2022/10/08 10:44:23;;;;;;;14.00;6.30;;;;;;;18.83;74.26;100438.23;103043;1281;22690;-58
2022/10/08 10:46:59;;;;;;;17.60;6.70;;;;;;;18.85;74.26;100435.98;102911;1282;26580;-57
2022/10/08 10:49:37;;;;;;;18.60;7.40;;;;;;;18.91;74.46;100438.39;103045;1306;22481;-58
2022/10/08 10:52:30;;;;;;;18.10;7.10;;;;;;;18.98;74.57;100437.33;103119;1275;24436;-58
2022/10/08 10:55:17;;;;;;;14.90;6.10;;;;;;;19.04;73.85;100436.29;102939;1275;22493;-57
2022/10/08 10:58:05;;;;;;;16.80;7.60;;;;;;;19.05;73.24;100435.71;103037;1290;291889;-56
2022/10/08 11:00:46;;;;;;;20.60;7.30;;;;;;;19.03;72.81;100429.60;103535;1277;25435;-56
2022/10/08 11:03:23;;;;;;;19.20;7.60;;;;;;;19.00;72.79;100429.33;103211;1292;24325;-56
2022/10/08 11:06:16;;;;;;;22.10;7.50;;;;;;;19.00;72.92;100423.41;103015;1275;26486;-55
2022/10/08 11:08:59;;;;;;;17.20;6.20;;;;;;;19.02;72.58;100420.77;102980;1282;22612;-56
2022/10/08 11:11:40;;;;;;;20.20;6.90;;;;;;;19.01;72.52;100423.36;102982;1275;24234;-57
2022/10/08 11:14:43;;;;;;;17.00;5.90;;;;;;;18.99;72.06;100426.66;103089;1282;22983;-55
2022/10/08 11:17:28;;;;;;;17.80;6.00;;;;;;;18.92;71.72;100422.08;102986;1281;25290;-57
2022/10/08 11:20:15;;;;;;;21.00;6.00;;;;;;;18.88;72.01;100418.40;103259;1282;25321;-57
2022/10/08 11:22:55;;;;;;;14.80;6.60;;;;;;;18.87;72.25;100415.24;103263;1278;25244;-57
2022/10/08 11:25:35;;;;;;;19.70;6.20;;;;;;;18.88;72.28;100414.05;103084;1286;22609;-56
2022/10/08 11:28:23;;;;;;;22.50;8.00;;;;;;;18.86;72.17;100411.39;103036;1288;24295;-58
2022/10/08 11:31:03;;;;;;;16.90;5.90;;;;;;;18.87;72.35;100403.62;102923;1278;24223;-58
2022/10/08 11:33:35;;;;;;;13.80;5.70;;;;;;;18.87;71.85;100402.32;103108;1305;22474;-57
2022/10/08 11:36:18;;;;;;;19.80;6.40;;;;;;;18.85;71.86;100403.33;103071;1275;22478;-58
2022/10/08 11:38:56;;;;;;;14.10;5.10;;;;;;;18.84;71.70;100404.59;103027;1282;24326;-58
2022/10/08 11:41:36;;;;;;;11.20;4.50;;;;;;;18.83;71.58;100409.69;103025;1298;22619;-57
2022/10/08 11:44:11;;;;;;;16.40;5.30;;;;;;;18.82;71.62;100410.10;102930;1287;22588;-57
2022/10/08 11:46:43;;;;;;;14.40;4.80;;;;;;;18.80;71.81;100412.77;103071;1279;24362;-58